sensor_id;sensor_type;location;lat;lon;timestamp;P1;durP1;ratioP1;P2;durP2;ratioP2
13720;SDS011;6932;51.438;5.470;2022-11-20T00:03:41;12.67;;;7.43;;
13720;SDS011;6932;51.438;5.470;2022-11-20T00:06:08;12.40;;;7.30;;
13720;SDS011;6932;51.438;5.470;2022-11-20T00:08:38;12.47;;;7.70;;
13720;SDS011;6932;51.438;5.470;2022-11-20T00:11:05;12.63;;;7.13;;
13720;SDS011;6932;51.438;5.470;2022-11-20T00:13:37;12.20;;;7.23;;
13720;SDS011;6932;51.438;5.470;2022-11-20T00:16:04;12.03;;;7.57;;
13720;SDS011;6932;51.438;5.470;2022-11-20T00:18:34;11.73;;;7.03;;
13720;SDS011;6932;51.438;5.470;2022-11-20T00:21:02;11.93;;;7.10;;
13720;SDS011;6932;51.438;5.470;2022-11-20T00:23:30;12.03;;;7.30;;
13720;SDS011;6932;51.438;5.470;2022-11-20T00:25:56;11.80;;;7.00;;
13720;SDS011;6932;51.438;5.470;2022-11-20T00:28:31;12.53;;;7.43;;
13720;SDS011;6932;51.438;5.470;2022-11-20T00:31:00;12.60;;;7.60;;
13720;SDS011;6932;51.438;5.470;2022-11-20T00:33:32;13.23;;;7.57;;
13720;SDS011;6932;51.438;5.470;2022-11-20T00:36:02;12.70;;;7.57;;
13720;SDS011;6932;51.438;5.470;2022-11-20T00:38:31;12.53;;;7.47;;
13720;SDS011;6932;51.438;5.470;2022-11-20T00:40:58;12.47;;;7.30;;
13720;SDS011;6932;51.438;5.470;2022-11-20T00:43:26;13.93;;;7.57;;
13720;SDS011;6932;51.438;5.470;2022-11-20T00:45:56;14.03;;;7.47;;
13720;SDS011;6932;51.438;5.470;2022-11-20T00:48:26;12.03;;;7.33;;
13720;SDS011;6932;51.438;5.470;2022-11-20T00:50:55;13.07;;;7.57;;
13720;SDS011;6932;51.438;5.470;2022-11-20T00:53:21;12.63;;;7.80;;
13720;SDS011;6932;51.438;5.470;2022-11-20T00:55:55;11.63;;;6.80;;
13720;SDS011;6932;51.438;5.470;2022-11-20T00:58:36;12.17;;;7.27;;
13720;SDS011;6932;51.438;5.470;2022-11-20T01:01:07;12.70;;;7.77;;
13720;SDS011;6932;51.438;5.470;2022-11-20T01:03:37;13.10;;;7.53;;
13720;SDS011;6932;51.438;5.470;2022-11-20T01:06:07;13.47;;;7.63;;
13720;SDS011;6932;51.438;5.470;2022-11-20T01:08:38;13.53;;;7.73;;
13720;SDS011;6932;51.438;5.470;2022-11-20T01:11:06;15.10;;;8.43;;
13720;SDS011;6932;51.438;5.470;2022-11-20T01:13:50;12.50;;;7.40;;
13720;SDS011;6932;51.438;5.470;2022-11-20T01:18:56;12.80;;;7.23;;
13720;SDS011;6932;51.438;5.470;2022-11-20T01:21:27;12.37;;;7.50;;
13720;SDS011;6932;51.438;5.470;2022-11-20T01:23:58;13.17;;;7.80;;
13720;SDS011;6932;51.438;5.470;2022-11-20T01:26:28;12.43;;;7.37;;
13720;SDS011;6932;51.438;5.470;2022-11-20T01:29:00;12.37;;;7.27;;
13720;SDS011;6932;51.438;5.470;2022-11-20T01:31:34;12.37;;;7.10;;
13720;SDS011;6932;51.438;5.470;2022-11-20T01:34:05;11.80;;;7.60;;
13720;SDS011;6932;51.438;5.470;2022-11-20T01:36:35;14.20;;;8.23;;
13720;SDS011;6932;51.438;5.470;2022-11-20T01:39:06;14.30;;;8.10;;
13720;SDS011;6932;51.438;5.470;2022-11-20T01:41:37;12.43;;;7.93;;
13720;SDS011;6932;51.438;5.470;2022-11-20T01:44:48;13.23;;;7.83;;
13720;SDS011;6932;51.438;5.470;2022-11-20T01:47:22;13.23;;;7.70;;
13720;SDS011;6932;51.438;5.470;2022-11-20T01:50:06;12.17;;;7.47;;
13720;SDS011;6932;51.438;5.470;2022-11-20T01:53:04;13.10;;;7.47;;
13720;SDS011;6932;51.438;5.470;2022-11-20T01:55:43;13.17;;;8.00;;
13720;SDS011;6932;51.438;5.470;2022-11-20T01:58:22;13.33;;;7.43;;
13720;SDS011;6932;51.438;5.470;2022-11-20T02:00:55;12.47;;;7.37;;
13720;SDS011;6932;51.438;5.470;2022-11-20T02:03:21;13.47;;;7.60;;
13720;SDS011;6932;51.438;5.470;2022-11-20T02:06:00;14.20;;;8.13;;
13720;SDS011;6932;51.438;5.470;2022-11-20T02:08:55;12.70;;;7.83;;
13720;SDS011;6932;51.438;5.470;2022-11-20T02:11:21;12.00;;;7.20;;
13720;SDS011;6932;51.438;5.470;2022-11-20T02:13:47;13.20;;;8.13;;
13720;SDS011;6932;51.438;5.470;2022-11-20T02:16:25;12.57;;;7.40;;
13720;SDS011;6932;51.438;5.470;2022-11-20T02:18:59;13.33;;;7.80;;
13720;SDS011;6932;51.438;5.470;2022-11-20T02:24:14;12.60;;;7.60;;
13720;SDS011;6932;51.438;5.470;2022-11-20T02:26:53;12.70;;;7.63;;
13720;SDS011;6932;51.438;5.470;2022-11-20T02:32:22;12.67;;;7.87;;
13720;SDS011;6932;51.438;5.470;2022-11-20T02:34:55;14.00;;;8.17;;
13720;SDS011;6932;51.438;5.470;2022-11-20T02:37:22;14.53;;;8.40;;
13720;SDS011;6932;51.438;5.470;2022-11-20T02:39:51;14.30;;;8.57;;
13720;SDS011;6932;51.438;5.470;2022-11-20T02:42:17;13.27;;;8.00;;
13720;SDS011;6932;51.438;5.470;2022-11-20T02:44:43;13.70;;;8.27;;
13720;SDS011;6932;51.438;5.470;2022-11-20T02:47:09;13.67;;;7.67;;
13720;SDS011;6932;51.438;5.470;2022-11-20T02:49:35;14.53;;;8.30;;
13720;SDS011;6932;51.438;5.470;2022-11-20T02:52:01;13.73;;;8.03;;
13720;SDS011;6932;51.438;5.470;2022-11-20T02:54:27;13.50;;;8.70;;
13720;SDS011;6932;51.438;5.470;2022-11-20T02:56:53;14.00;;;8.13;;
13720;SDS011;6932;51.438;5.470;2022-11-20T02:59:22;13.87;;;8.07;;
13720;SDS011;6932;51.438;5.470;2022-11-20T03:01:47;12.37;;;7.77;;
13720;SDS011;6932;51.438;5.470;2022-11-20T03:04:13;13.10;;;7.73;;
13720;SDS011;6932;51.438;5.470;2022-11-20T03:06:39;13.27;;;8.20;;
13720;SDS011;6932;51.438;5.470;2022-11-20T03:09:05;12.30;;;7.87;;
13720;SDS011;6932;51.438;5.470;2022-11-20T03:11:33;13.17;;;7.90;;
13720;SDS011;6932;51.438;5.470;2022-11-20T03:14:01;13.63;;;8.50;;
13720;SDS011;6932;51.438;5.470;2022-11-20T03:16:30;12.07;;;7.50;;
13720;SDS011;6932;51.438;5.470;2022-11-20T03:18:57;12.70;;;7.83;;
13720;SDS011;6932;51.438;5.470;2022-11-20T03:21:23;12.87;;;7.53;;
13720;SDS011;6932;51.438;5.470;2022-11-20T03:23:49;14.23;;;8.00;;
13720;SDS011;6932;51.438;5.470;2022-11-20T03:26:20;13.77;;;8.47;;
13720;SDS011;6932;51.438;5.470;2022-11-20T03:28:57;12.83;;;7.93;;
13720;SDS011;6932;51.438;5.470;2022-11-20T03:31:26;13.67;;;8.07;;
13720;SDS011;6932;51.438;5.470;2022-11-20T03:33:58;13.63;;;8.37;;
13720;SDS011;6932;51.438;5.470;2022-11-20T03:36:25;13.80;;;7.90;;
13720;SDS011;6932;51.438;5.470;2022-11-20T03:38:55;14.00;;;8.40;;
13720;SDS011;6932;51.438;5.470;2022-11-20T03:41:23;14.47;;;8.40;;
13720;SDS011;6932;51.438;5.470;2022-11-20T03:43:59;13.87;;;8.30;;
13720;SDS011;6932;51.438;5.470;2022-11-20T03:46:29;15.80;;;9.00;;
13720;SDS011;6932;51.438;5.470;2022-11-20T03:48:55;14.33;;;8.80;;
13720;SDS011;6932;51.438;5.470;2022-11-20T03:51:29;14.50;;;8.73;;
13720;SDS011;6932;51.438;5.470;2022-11-20T03:53:59;14.20;;;8.23;;
13720;SDS011;6932;51.438;5.470;2022-11-20T03:56:31;13.83;;;8.70;;
13720;SDS011;6932;51.438;5.470;2022-11-20T03:59:00;14.40;;;9.00;;
13720;SDS011;6932;51.438;5.470;2022-11-20T04:01:29;15.00;;;8.97;;
13720;SDS011;6932;51.438;5.470;2022-11-20T04:03:58;14.10;;;8.40;;
13720;SDS011;6932;51.438;5.470;2022-11-20T04:06:26;14.30;;;8.50;;
13720;SDS011;6932;51.438;5.470;2022-11-20T04:08:55;14.67;;;9.07;;
13720;SDS011;6932;51.438;5.470;2022-11-20T04:11:25;13.83;;;9.00;;
13720;SDS011;6932;51.438;5.470;2022-11-20T04:14:00;14.33;;;8.80;;
13720;SDS011;6932;51.438;5.470;2022-11-20T04:16:30;13.73;;;8.37;;
13720;SDS011;6932;51.438;5.470;2022-11-20T04:18:59;15.00;;;9.07;;
13720;SDS011;6932;51.438;5.470;2022-11-20T04:21:30;13.30;;;8.70;;
13720;SDS011;6932;51.438;5.470;2022-11-20T04:23:56;14.20;;;8.77;;
13720;SDS011;6932;51.438;5.470;2022-11-20T04:26:24;14.67;;;9.17;;
13720;SDS011;6932;51.438;5.470;2022-11-20T04:28:52;14.73;;;9.07;;
13720;SDS011;6932;51.438;5.470;2022-11-20T04:31:22;14.63;;;8.70;;
13720;SDS011;6932;51.438;5.470;2022-11-20T04:33:50;14.90;;;9.07;;
13720;SDS011;6932;51.438;5.470;2022-11-20T04:36:18;14.30;;;8.87;;
13720;SDS011;6932;51.438;5.470;2022-11-20T04:38:53;14.13;;;8.60;;
13720;SDS011;6932;51.438;5.470;2022-11-20T04:41:24;15.17;;;9.53;;
13720;SDS011;6932;51.438;5.470;2022-11-20T04:43:54;13.17;;;8.27;;
13720;SDS011;6932;51.438;5.470;2022-11-20T04:46:28;16.07;;;8.73;;
13720;SDS011;6932;51.438;5.470;2022-11-20T04:48:58;14.63;;;9.47;;
13720;SDS011;6932;51.438;5.470;2022-11-20T04:51:25;14.80;;;9.00;;
13720;SDS011;6932;51.438;5.470;2022-11-20T04:53:51;15.50;;;9.23;;
13720;SDS011;6932;51.438;5.470;2022-11-20T04:56:18;13.70;;;8.70;;
13720;SDS011;6932;51.438;5.470;2022-11-20T04:58:43;14.57;;;9.17;;
13720;SDS011;6932;51.438;5.470;2022-11-20T05:01:11;15.40;;;9.70;;
13720;SDS011;6932;51.438;5.470;2022-11-20T05:03:40;14.87;;;8.80;;
13720;SDS011;6932;51.438;5.470;2022-11-20T05:06:07;14.53;;;8.97;;
13720;SDS011;6932;51.438;5.470;2022-11-20T05:08:36;15.83;;;9.33;;
13720;SDS011;6932;51.438;5.470;2022-11-20T05:11:03;14.50;;;8.77;;
13720;SDS011;6932;51.438;5.470;2022-11-20T05:13:31;14.53;;;9.07;;
13720;SDS011;6932;51.438;5.470;2022-11-20T05:16:01;13.60;;;8.63;;
13720;SDS011;6932;51.438;5.470;2022-11-20T05:18:30;14.30;;;8.67;;
13720;SDS011;6932;51.438;5.470;2022-11-20T05:20:56;15.30;;;8.90;;
13720;SDS011;6932;51.438;5.470;2022-11-20T05:23:23;13.67;;;8.50;;
13720;SDS011;6932;51.438;5.470;2022-11-20T05:25:53;14.07;;;8.63;;
13720;SDS011;6932;51.438;5.470;2022-11-20T05:28:21;13.07;;;8.43;;
13720;SDS011;6932;51.438;5.470;2022-11-20T05:30:48;13.97;;;8.40;;
13720;SDS011;6932;51.438;5.470;2022-11-20T05:33:14;14.10;;;8.70;;
13720;SDS011;6932;51.438;5.470;2022-11-20T05:35:40;14.90;;;8.30;;
13720;SDS011;6932;51.438;5.470;2022-11-20T05:38:06;13.27;;;8.47;;
13720;SDS011;6932;51.438;5.470;2022-11-20T05:40:32;12.80;;;7.60;;
13720;SDS011;6932;51.438;5.470;2022-11-20T05:42:59;13.77;;;8.60;;
13720;SDS011;6932;51.438;5.470;2022-11-20T05:45:25;13.13;;;7.80;;
13720;SDS011;6932;51.438;5.470;2022-11-20T05:47:52;15.37;;;8.40;;
13720;SDS011;6932;51.438;5.470;2022-11-20T05:50:18;14.27;;;8.37;;
13720;SDS011;6932;51.438;5.470;2022-11-20T05:52:44;14.63;;;8.63;;
13720;SDS011;6932;51.438;5.470;2022-11-20T05:55:14;13.37;;;8.37;;
13720;SDS011;6932;51.438;5.470;2022-11-20T05:57:40;14.43;;;8.40;;
13720;SDS011;6932;51.438;5.470;2022-11-20T06:00:06;13.20;;;8.03;;
13720;SDS011;6932;51.438;5.470;2022-11-20T06:02:35;14.13;;;8.73;;
13720;SDS011;6932;51.438;5.470;2022-11-20T06:05:03;13.67;;;8.60;;
13720;SDS011;6932;51.438;5.470;2022-11-20T06:07:30;14.20;;;8.80;;
13720;SDS011;6932;51.438;5.470;2022-11-20T06:09:55;13.80;;;8.20;;
13720;SDS011;6932;51.438;5.470;2022-11-20T06:12:21;13.53;;;7.97;;
13720;SDS011;6932;51.438;5.470;2022-11-20T06:14:47;13.67;;;8.47;;
13720;SDS011;6932;51.438;5.470;2022-11-20T06:17:13;13.47;;;8.03;;
13720;SDS011;6932;51.438;5.470;2022-11-20T06:19:39;12.83;;;7.93;;
13720;SDS011;6932;51.438;5.470;2022-11-20T06:22:05;12.97;;;8.17;;
13720;SDS011;6932;51.438;5.470;2022-11-20T06:24:30;12.50;;;8.17;;
13720;SDS011;6932;51.438;5.470;2022-11-20T06:26:56;13.67;;;8.43;;
13720;SDS011;6932;51.438;5.470;2022-11-20T06:29:22;13.73;;;8.43;;
13720;SDS011;6932;51.438;5.470;2022-11-20T06:31:48;14.10;;;8.60;;
13720;SDS011;6932;51.438;5.470;2022-11-20T06:34:14;13.93;;;8.20;;
13720;SDS011;6932;51.438;5.470;2022-11-20T06:36:40;13.00;;;8.47;;
13720;SDS011;6932;51.438;5.470;2022-11-20T06:39:05;14.00;;;8.87;;
13720;SDS011;6932;51.438;5.470;2022-11-20T06:41:31;14.37;;;8.43;;
13720;SDS011;6932;51.438;5.470;2022-11-20T06:43:57;14.47;;;9.27;;
13720;SDS011;6932;51.438;5.470;2022-11-20T06:46:23;13.83;;;8.47;;
13720;SDS011;6932;51.438;5.470;2022-11-20T06:48:49;14.47;;;8.23;;
13720;SDS011;6932;51.438;5.470;2022-11-20T06:51:16;13.70;;;8.40;;
13720;SDS011;6932;51.438;5.470;2022-11-20T06:53:42;13.97;;;8.07;;
13720;SDS011;6932;51.438;5.470;2022-11-20T06:56:08;12.57;;;7.80;;
13720;SDS011;6932;51.438;5.470;2022-11-20T06:58:34;14.37;;;8.70;;
13720;SDS011;6932;51.438;5.470;2022-11-20T07:01:13;12.67;;;7.77;;
13720;SDS011;6932;51.438;5.470;2022-11-20T07:03:43;13.57;;;8.30;;
13720;SDS011;6932;51.438;5.470;2022-11-20T07:06:09;13.77;;;8.40;;
13720;SDS011;6932;51.438;5.470;2022-11-20T07:08:36;13.37;;;8.30;;
13720;SDS011;6932;51.438;5.470;2022-11-20T07:11:03;13.90;;;8.80;;
13720;SDS011;6932;51.438;5.470;2022-11-20T07:13:31;15.77;;;8.90;;
13720;SDS011;6932;51.438;5.470;2022-11-20T07:16:00;13.10;;;8.17;;
13720;SDS011;6932;51.438;5.470;2022-11-20T07:18:31;13.03;;;8.17;;
13720;SDS011;6932;51.438;5.470;2022-11-20T07:21:05;14.27;;;8.60;;
13720;SDS011;6932;51.438;5.470;2022-11-20T07:23:33;12.77;;;8.33;;
13720;SDS011;6932;51.438;5.470;2022-11-20T07:26:06;13.10;;;7.87;;
13720;SDS011;6932;51.438;5.470;2022-11-20T07:28:38;13.23;;;8.00;;
13720;SDS011;6932;51.438;5.470;2022-11-20T07:31:04;13.50;;;8.30;;
13720;SDS011;6932;51.438;5.470;2022-11-20T07:33:31;12.63;;;8.03;;
13720;SDS011;6932;51.438;5.470;2022-11-20T07:36:01;14.23;;;8.33;;
13720;SDS011;6932;51.438;5.470;2022-11-20T07:38:27;13.73;;;8.37;;
13720;SDS011;6932;51.438;5.470;2022-11-20T07:40:53;14.03;;;8.90;;
13720;SDS011;6932;51.438;5.470;2022-11-20T07:43:23;13.07;;;8.50;;
13720;SDS011;6932;51.438;5.470;2022-11-20T07:45:52;12.57;;;7.70;;
13720;SDS011;6932;51.438;5.470;2022-11-20T07:48:21;13.97;;;8.00;;
13720;SDS011;6932;51.438;5.470;2022-11-20T07:50:48;13.37;;;8.33;;
13720;SDS011;6932;51.438;5.470;2022-11-20T07:53:13;13.20;;;8.00;;
13720;SDS011;6932;51.438;5.470;2022-11-20T07:55:45;13.93;;;8.43;;
13720;SDS011;6932;51.438;5.470;2022-11-20T07:58:11;14.30;;;8.60;;
13720;SDS011;6932;51.438;5.470;2022-11-20T08:00:38;13.33;;;7.97;;
13720;SDS011;6932;51.438;5.470;2022-11-20T08:03:08;13.90;;;8.70;;
13720;SDS011;6932;51.438;5.470;2022-11-20T08:05:44;14.47;;;7.80;;
13720;SDS011;6932;51.438;5.470;2022-11-20T08:08:10;14.53;;;8.67;;
13720;SDS011;6932;51.438;5.470;2022-11-20T08:10:36;13.97;;;8.57;;
13720;SDS011;6932;51.438;5.470;2022-11-20T08:13:01;13.30;;;8.37;;
13720;SDS011;6932;51.438;5.470;2022-11-20T08:15:49;15.10;;;8.50;;
13720;SDS011;6932;51.438;5.470;2022-11-20T08:18:17;13.83;;;8.63;;
13720;SDS011;6932;51.438;5.470;2022-11-20T08:20:43;13.90;;;8.50;;
13720;SDS011;6932;51.438;5.470;2022-11-20T08:23:15;13.13;;;8.37;;
13720;SDS011;6932;51.438;5.470;2022-11-20T08:25:48;14.57;;;8.73;;
13720;SDS011;6932;51.438;5.470;2022-11-20T08:28:16;15.13;;;8.87;;
13720;SDS011;6932;51.438;5.470;2022-11-20T08:30:41;14.87;;;8.80;;
13720;SDS011;6932;51.438;5.470;2022-11-20T08:33:08;13.37;;;8.53;;
13720;SDS011;6932;51.438;5.470;2022-11-20T08:35:35;15.27;;;9.30;;
13720;SDS011;6932;51.438;5.470;2022-11-20T08:38:03;14.53;;;9.10;;
13720;SDS011;6932;51.438;5.470;2022-11-20T08:40:31;14.13;;;8.67;;
13720;SDS011;6932;51.438;5.470;2022-11-20T08:42:58;14.67;;;9.00;;
13720;SDS011;6932;51.438;5.470;2022-11-20T08:45:24;14.57;;;9.27;;
13720;SDS011;6932;51.438;5.470;2022-11-20T08:47:50;13.63;;;8.90;;
13720;SDS011;6932;51.438;5.470;2022-11-20T08:50:16;14.33;;;9.10;;
13720;SDS011;6932;51.438;5.470;2022-11-20T08:52:45;13.90;;;8.90;;
13720;SDS011;6932;51.438;5.470;2022-11-20T08:55:14;15.60;;;9.10;;
13720;SDS011;6932;51.438;5.470;2022-11-20T08:57:42;14.70;;;8.73;;
13720;SDS011;6932;51.438;5.470;2022-11-20T09:00:09;14.80;;;8.97;;
13720;SDS011;6932;51.438;5.470;2022-11-20T09:02:41;15.93;;;9.37;;
13720;SDS011;6932;51.438;5.470;2022-11-20T09:05:07;14.97;;;8.87;;
13720;SDS011;6932;51.438;5.470;2022-11-20T09:07:33;14.77;;;9.07;;
13720;SDS011;6932;51.438;5.470;2022-11-20T09:09:59;15.90;;;9.47;;
13720;SDS011;6932;51.438;5.470;2022-11-20T09:12:25;16.30;;;9.63;;
13720;SDS011;6932;51.438;5.470;2022-11-20T09:14:51;17.50;;;10.13;;
13720;SDS011;6932;51.438;5.470;2022-11-20T09:17:19;16.70;;;10.37;;
13720;SDS011;6932;51.438;5.470;2022-11-20T09:19:45;19.93;;;10.77;;
13720;SDS011;6932;51.438;5.470;2022-11-20T09:22:11;18.10;;;10.83;;
13720;SDS011;6932;51.438;5.470;2022-11-20T09:24:39;20.50;;;11.77;;
13720;SDS011;6932;51.438;5.470;2022-11-20T09:27:05;19.53;;;11.33;;
13720;SDS011;6932;51.438;5.470;2022-11-20T09:29:31;20.57;;;11.33;;
13720;SDS011;6932;51.438;5.470;2022-11-20T09:31:57;22.07;;;12.90;;
13720;SDS011;6932;51.438;5.470;2022-11-20T09:34:23;21.00;;;12.43;;
13720;SDS011;6932;51.438;5.470;2022-11-20T09:36:51;20.33;;;12.23;;
13720;SDS011;6932;51.438;5.470;2022-11-20T09:39:17;20.17;;;11.83;;
13720;SDS011;6932;51.438;5.470;2022-11-20T09:42:19;21.33;;;12.13;;
13720;SDS011;6932;51.438;5.470;2022-11-20T09:45:16;23.13;;;12.77;;
13720;SDS011;6932;51.438;5.470;2022-11-20T09:48:02;22.87;;;12.53;;
13720;SDS011;6932;51.438;5.470;2022-11-20T09:51:13;22.17;;;13.53;;
13720;SDS011;6932;51.438;5.470;2022-11-20T09:56:36;21.90;;;13.53;;
13720;SDS011;6932;51.438;5.470;2022-11-20T09:59:06;24.13;;;14.77;;
13720;SDS011;6932;51.438;5.470;2022-11-20T10:01:47;25.27;;;14.20;;
13720;SDS011;6932;51.438;5.470;2022-11-20T10:04:17;24.50;;;14.00;;
13720;SDS011;6932;51.438;5.470;2022-11-20T10:09:40;23.53;;;14.13;;
13720;SDS011;6932;51.438;5.470;2022-11-20T10:20:46;23.70;;;14.10;;
13720;SDS011;6932;51.438;5.470;2022-11-20T10:29:59;20.33;;;12.40;;
13720;SDS011;6932;51.438;5.470;2022-11-20T10:32:46;21.10;;;12.37;;
13720;SDS011;6932;51.438;5.470;2022-11-20T10:38:38;22.47;;;13.03;;
13720;SDS011;6932;51.438;5.470;2022-11-20T10:41:34;22.03;;;12.50;;
13720;SDS011;6932;51.438;5.470;2022-11-20T10:44:12;21.87;;;13.03;;
13720;SDS011;6932;51.438;5.470;2022-11-20T10:47:16;21.60;;;12.53;;
13720;SDS011;6932;51.438;5.470;2022-11-20T10:49:45;23.70;;;13.03;;
13720;SDS011;6932;51.438;5.470;2022-11-20T10:58:14;21.90;;;13.13;;
13720;SDS011;6932;51.438;5.470;2022-11-20T11:01:11;22.37;;;13.10;;
13720;SDS011;6932;51.438;5.470;2022-11-20T11:04:00;22.03;;;12.43;;
13720;SDS011;6932;51.438;5.470;2022-11-20T11:06:40;20.97;;;12.23;;
13720;SDS011;6932;51.438;5.470;2022-11-20T11:09:17;22.40;;;13.47;;
13720;SDS011;6932;51.438;5.470;2022-11-20T11:11:55;23.10;;;13.67;;
13720;SDS011;6932;51.438;5.470;2022-11-20T11:14:21;21.77;;;12.90;;
13720;SDS011;6932;51.438;5.470;2022-11-20T11:16:54;21.10;;;12.73;;
13720;SDS011;6932;51.438;5.470;2022-11-20T11:19:22;23.93;;;14.37;;
13720;SDS011;6932;51.438;5.470;2022-11-20T11:21:53;22.23;;;13.67;;
13720;SDS011;6932;51.438;5.470;2022-11-20T11:26:59;25.33;;;14.97;;
13720;SDS011;6932;51.438;5.470;2022-11-20T11:29:32;25.00;;;15.30;;
13720;SDS011;6932;51.438;5.470;2022-11-20T11:34:57;25.07;;;14.77;;
13720;SDS011;6932;51.438;5.470;2022-11-20T11:37:38;26.70;;;16.27;;
13720;SDS011;6932;51.438;5.470;2022-11-20T11:40:05;24.57;;;14.67;;
13720;SDS011;6932;51.438;5.470;2022-11-20T11:42:39;23.20;;;14.30;;
13720;SDS011;6932;51.438;5.470;2022-11-20T11:45:25;25.90;;;15.40;;
13720;SDS011;6932;51.438;5.470;2022-11-20T11:47:54;25.13;;;14.60;;
13720;SDS011;6932;51.438;5.470;2022-11-20T11:50:24;24.07;;;14.53;;
13720;SDS011;6932;51.438;5.470;2022-11-20T11:58:34;23.47;;;14.17;;
13720;SDS011;6932;51.438;5.470;2022-11-20T12:07:15;23.60;;;13.53;;
13720;SDS011;6932;51.438;5.470;2022-11-20T12:09:49;24.50;;;13.83;;
13720;SDS011;6932;51.438;5.470;2022-11-20T12:12:27;25.03;;;14.23;;
13720;SDS011;6932;51.438;5.470;2022-11-20T12:15:02;25.07;;;13.37;;
13720;SDS011;6932;51.438;5.470;2022-11-20T12:17:36;25.20;;;14.03;;
13720;SDS011;6932;51.438;5.470;2022-11-20T12:20:02;22.17;;;13.07;;
13720;SDS011;6932;51.438;5.470;2022-11-20T12:25:11;23.37;;;13.90;;
13720;SDS011;6932;51.438;5.470;2022-11-20T12:30:35;24.03;;;13.63;;
13720;SDS011;6932;51.438;5.470;2022-11-20T12:36:28;24.33;;;14.20;;
13720;SDS011;6932;51.438;5.470;2022-11-20T12:39:49;23.33;;;13.83;;
13720;SDS011;6932;51.438;5.470;2022-11-20T12:45:26;23.73;;;13.57;;
13720;SDS011;6932;51.438;5.470;2022-11-20T12:48:19;26.60;;;14.57;;
13720;SDS011;6932;51.438;5.470;2022-11-20T12:57:34;26.27;;;14.20;;
13720;SDS011;6932;51.438;5.470;2022-11-20T13:00:16;23.90;;;13.53;;
13720;SDS011;6932;51.438;5.470;2022-11-20T13:08:43;23.17;;;14.10;;
13720;SDS011;6932;51.438;5.470;2022-11-20T13:11:32;25.57;;;14.07;;
13720;SDS011;6932;51.438;5.470;2022-11-20T13:17:24;22.73;;;13.20;;
13720;SDS011;6932;51.438;5.470;2022-11-20T13:20:02;24.27;;;14.33;;
13720;SDS011;6932;51.438;5.470;2022-11-20T13:22:46;24.30;;;13.73;;
13720;SDS011;6932;51.438;5.470;2022-11-20T13:25:26;25.40;;;14.20;;
13720;SDS011;6932;51.438;5.470;2022-11-20T13:28:02;23.70;;;13.60;;
13720;SDS011;6932;51.438;5.470;2022-11-20T13:30:36;24.27;;;14.83;;
13720;SDS011;6932;51.438;5.470;2022-11-20T13:33:37;24.10;;;14.60;;
13720;SDS011;6932;51.438;5.470;2022-11-20T13:36:24;23.13;;;14.03;;
13720;SDS011;6932;51.438;5.470;2022-11-20T13:38:53;25.53;;;14.40;;
13720;SDS011;6932;51.438;5.470;2022-11-20T13:41:32;24.70;;;13.53;;
13720;SDS011;6932;51.438;5.470;2022-11-20T13:44:13;23.43;;;13.67;;
13720;SDS011;6932;51.438;5.470;2022-11-20T13:47:03;25.03;;;14.57;;
13720;SDS011;6932;51.438;5.470;2022-11-20T13:49:44;24.93;;;14.60;;
13720;SDS011;6932;51.438;5.470;2022-11-20T13:58:27;24.83;;;14.50;;
13720;SDS011;6932;51.438;5.470;2022-11-20T14:01:29;29.07;;;16.10;;
13720;SDS011;6932;51.438;5.470;2022-11-20T14:03:57;26.30;;;15.03;;
13720;SDS011;6932;51.438;5.470;2022-11-20T14:06:28;25.07;;;15.50;;
13720;SDS011;6932;51.438;5.470;2022-11-20T14:08:57;24.83;;;14.80;;
13720;SDS011;6932;51.438;5.470;2022-11-20T14:11:26;24.17;;;14.47;;
13720;SDS011;6932;51.438;5.470;2022-11-20T14:13:56;21.57;;;13.60;;
13720;SDS011;6932;51.438;5.470;2022-11-20T14:16:41;22.77;;;13.40;;
13720;SDS011;6932;51.438;5.470;2022-11-20T14:21:49;22.20;;;13.40;;
13720;SDS011;6932;51.438;5.470;2022-11-20T14:24:19;23.40;;;13.70;;
13720;SDS011;6932;51.438;5.470;2022-11-20T14:26:55;24.17;;;13.57;;
13720;SDS011;6932;51.438;5.470;2022-11-20T14:29:21;22.80;;;13.93;;
13720;SDS011;6932;51.438;5.470;2022-11-20T14:31:53;23.80;;;14.00;;
13720;SDS011;6932;51.438;5.470;2022-11-20T14:34:23;22.67;;;13.73;;
13720;SDS011;6932;51.438;5.470;2022-11-20T14:36:55;20.93;;;13.10;;
13720;SDS011;6932;51.438;5.470;2022-11-20T14:39:36;23.67;;;14.17;;
13720;SDS011;6932;51.438;5.470;2022-11-20T14:42:21;22.90;;;13.33;;
13720;SDS011;6932;51.438;5.470;2022-11-20T14:44:51;24.03;;;14.53;;
13720;SDS011;6932;51.438;5.470;2022-11-20T14:47:23;24.13;;;15.03;;
13720;SDS011;6932;51.438;5.470;2022-11-20T14:49:56;27.03;;;16.27;;
13720;SDS011;6932;51.438;5.470;2022-11-20T14:52:24;24.60;;;15.10;;
13720;SDS011;6932;51.438;5.470;2022-11-20T14:54:54;22.37;;;14.43;;
13720;SDS011;6932;51.438;5.470;2022-11-20T14:57:34;22.10;;;13.33;;
13720;SDS011;6932;51.438;5.470;2022-11-20T15:02:46;23.00;;;13.90;;
13720;SDS011;6932;51.438;5.470;2022-11-20T15:05:15;23.17;;;13.47;;
13720;SDS011;6932;51.438;5.470;2022-11-20T15:07:45;21.57;;;13.43;;
13720;SDS011;6932;51.438;5.470;2022-11-20T15:10:25;20.63;;;12.97;;
13720;SDS011;6932;51.438;5.470;2022-11-20T15:12:55;20.60;;;12.77;;
13720;SDS011;6932;51.438;5.470;2022-11-20T15:15:33;23.43;;;13.67;;
13720;SDS011;6932;51.438;5.470;2022-11-20T15:18:23;23.03;;;13.47;;
13720;SDS011;6932;51.438;5.470;2022-11-20T15:20:52;23.33;;;13.67;;
13720;SDS011;6932;51.438;5.470;2022-11-20T15:23:21;21.40;;;13.07;;
13720;SDS011;6932;51.438;5.470;2022-11-20T15:25:48;20.20;;;12.47;;
13720;SDS011;6932;51.438;5.470;2022-11-20T15:28:19;20.83;;;12.87;;
13720;SDS011;6932;51.438;5.470;2022-11-20T15:31:14;20.83;;;12.67;;
13720;SDS011;6932;51.438;5.470;2022-11-20T15:33:49;21.83;;;13.13;;
13720;SDS011;6932;51.438;5.470;2022-11-20T15:36:15;22.87;;;13.20;;
13720;SDS011;6932;51.438;5.470;2022-11-20T15:38:42;21.30;;;13.00;;
13720;SDS011;6932;51.438;5.470;2022-11-20T15:41:11;23.60;;;13.37;;
13720;SDS011;6932;51.438;5.470;2022-11-20T15:43:37;19.43;;;11.67;;
13720;SDS011;6932;51.438;5.470;2022-11-20T15:46:05;20.57;;;12.57;;
13720;SDS011;6932;51.438;5.470;2022-11-20T15:48:44;20.20;;;12.57;;
13720;SDS011;6932;51.438;5.470;2022-11-20T15:51:18;20.63;;;11.53;;
13720;SDS011;6932;51.438;5.470;2022-11-20T15:53:54;20.83;;;11.27;;
13720;SDS011;6932;51.438;5.470;2022-11-20T15:56:21;17.97;;;10.57;;
13720;SDS011;6932;51.438;5.470;2022-11-20T15:58:47;19.10;;;10.90;;
13720;SDS011;6932;51.438;5.470;2022-11-20T16:01:18;18.03;;;10.53;;
13720;SDS011;6932;51.438;5.470;2022-11-20T16:03:49;16.37;;;9.30;;
13720;SDS011;6932;51.438;5.470;2022-11-20T16:06:15;16.73;;;9.80;;
13720;SDS011;6932;51.438;5.470;2022-11-20T16:08:41;16.07;;;9.13;;
13720;SDS011;6932;51.438;5.470;2022-11-20T16:11:09;15.53;;;8.90;;
13720;SDS011;6932;51.438;5.470;2022-11-20T16:13:42;15.10;;;8.67;;
13720;SDS011;6932;51.438;5.470;2022-11-20T16:16:30;13.97;;;8.17;;
13720;SDS011;6932;51.438;5.470;2022-11-20T16:19:00;13.77;;;7.50;;
13720;SDS011;6932;51.438;5.470;2022-11-20T16:21:26;13.77;;;8.07;;
13720;SDS011;6932;51.438;5.470;2022-11-20T16:23:57;14.27;;;7.30;;
13720;SDS011;6932;51.438;5.470;2022-11-20T16:26:28;13.90;;;7.37;;
13720;SDS011;6932;51.438;5.470;2022-11-20T16:28:55;13.17;;;7.43;;
13720;SDS011;6932;51.438;5.470;2022-11-20T16:31:21;13.07;;;6.97;;
13720;SDS011;6932;51.438;5.470;2022-11-20T16:34:06;12.23;;;7.60;;
13720;SDS011;6932;51.438;5.470;2022-11-20T16:36:32;12.30;;;6.90;;
13720;SDS011;6932;51.438;5.470;2022-11-20T16:39:00;8.03;;;4.50;;
13720;SDS011;6932;51.438;5.470;2022-11-20T16:41:29;9.70;;;5.20;;
13720;SDS011;6932;51.438;5.470;2022-11-20T16:43:58;9.17;;;5.30;;
13720;SDS011;6932;51.438;5.470;2022-11-20T16:46:27;9.40;;;5.40;;